Time;durP1;ratioP1;P1;durP2;ratioP2;P2;SDS_P1;SDS_P2;PMS_P1;PMS_P2;Temp;Humidity;BMP_temperature;BMP_pressure;BME280_temperature;BME280_humidity;BME280_pressure;Samples;Min_cycle;Max_cycle;Signal;HPM_P1;HPM_P2
2023/08/20 00:00:19;;;;;;;;;;;20.40;99.90;;;;;;8445934;28;19928;-72
2023/08/20 00:04:21;;;;;;;;;;;20.40;99.90;;;;;;8447254;28;19977;-72
2023/08/20 00:08:24;;;;;;;;;;;20.40;99.90;;;;;;8445448;27;22354;-72
2023/08/20 00:12:26;;;;;;;;;;;20.30;99.90;;;;;;8441615;28;19927;-72
2023/08/20 00:16:28;;;;;;;;;;;20.30;99.90;;;;;;8450056;28;19925;-72
2023/08/20 00:20:30;;;;;;;;;;;20.20;99.90;;;;;;8445824;28;19923;-72
2023/08/20 00:24:31;;;;;;;;;;;20.10;99.90;;;;;;8434053;27;19923;-72
2023/08/20 00:28:34;;;;;;;;;;;20.10;99.90;;;;;;8445383;28;19931;-72
2023/08/20 00:32:36;;;;;;;;;;;20.00;99.90;;;;;;8448623;28;19932;-72
2023/08/20 00:36:38;;;;;;;;;;;19.90;99.90;;;;;;8447627;28;19923;-72
2023/08/20 00:40:39;;;;;;;;;;;19.90;99.90;;;;;;8451474;27;19931;-72
2023/08/20 00:44:44;;;;;;;;;;;19.90;99.90;;;;;;8460673;27;19927;-72
2023/08/20 00:48:45;;;;;;;;;;;19.80;99.90;;;;;;8452029;27;19932;-72
2023/08/20 00:52:48;;;;;;;;;;;19.80;99.90;;;;;;8445440;28;19924;-72
2023/08/20 00:56:50;;;;;;;;;;;19.80;99.90;;;;;;8449808;27;20411;-73
2023/08/20 01:00:51;;;;;;;;;;;19.80;99.90;;;;;;8445688;28;20539;-72
2023/08/20 01:04:53;;;;;;;;;;;19.80;99.90;;;;;;8423940;28;20339;-72
2023/08/20 01:08:58;;;;;;;;;;;19.70;99.90;;;;;;8439901;28;19979;-72
2023/08/20 01:13:00;;;;;;;;;;;19.70;99.90;;;;;;8437408;28;20275;-72
2023/08/20 01:17:02;;;;;;;;;;;19.70;99.90;;;;;;8454400;27;19924;-73
2023/08/20 01:21:10;;;;;;;;;;;19.60;99.90;;;;;;8433871;28;20489;-73
2023/08/20 01:25:12;;;;;;;;;;;19.60;99.90;;;;;;8438034;28;19928;-73
2023/08/20 01:29:13;;;;;;;;;;;19.60;99.90;;;;;;8440989;28;19924;-73
2023/08/20 01:33:16;;;;;;;;;;;19.60;99.90;;;;;;8464506;27;19932;-72
2023/08/20 01:37:18;;;;;;;;;;;19.60;99.90;;;;;;8444110;28;20402;-73
2023/08/20 01:41:19;;;;;;;;;;;19.60;99.90;;;;;;8444500;28;19931;-73
2023/08/20 01:45:22;;;;;;;;;;;19.50;99.90;;;;;;8441487;28;20359;-72
2023/08/20 01:49:23;;;;;;;;;;;19.50;99.90;;;;;;8439324;27;19931;-73
2023/08/20 01:53:25;;;;;;;;;;;19.50;99.90;;;;;;8444739;28;19935;-72
2023/08/20 01:57:27;;;;;;;;;;;19.40;99.90;;;;;;8446662;28;20167;-72
2023/08/20 02:01:28;;;;;;;;;;;19.40;99.90;;;;;;8451351;28;19924;-72
2023/08/20 02:05:30;;;;;;;;;;;19.30;99.90;;;;;;8434608;28;20018;-72
2023/08/20 02:09:32;;;;;;;;;;;19.30;99.90;;;;;;8433940;28;19931;-72
2023/08/20 02:13:33;;;;;;;;;;;19.30;99.90;;;;;;8449022;27;19931;-72
2023/08/20 02:17:35;;;;;;;;;;;19.20;99.90;;;;;;8455287;27;19973;-72
2023/08/20 02:21:38;;;;;;;;;;;19.20;99.90;;;;;;8442044;28;19923;-72
2023/08/20 02:25:39;;;;;;;;;;;19.20;99.90;;;;;;8452457;27;20298;-72
2023/08/20 02:29:41;;;;;;;;;;;19.10;99.90;;;;;;8452343;27;20302;-72
2023/08/20 02:33:43;;;;;;;;;;;19.10;99.90;;;;;;8449976;28;19977;-72
2023/08/20 02:37:44;;;;;;;;;;;19.00;99.90;;;;;;8446185;28;19966;-72
2023/08/20 02:41:46;;;;;;;;;;;19.00;99.90;;;;;;8444841;27;19928;-72
2023/08/20 02:45:48;;;;;;;;;;;18.90;99.90;;;;;;8456785;28;19924;-72
2023/08/20 02:49:49;;;;;;;;;;;18.90;99.90;;;;;;8455393;28;20288;-72
2023/08/20 02:53:51;;;;;;;;;;;18.70;99.90;;;;;;8457282;28;19946;-72
2023/08/20 02:57:53;;;;;;;;;;;18.70;99.90;;;;;;8439676;28;19973;-73
2023/08/20 03:01:54;;;;;;;;;;;18.60;99.90;;;;;;8457496;27;19931;-72
2023/08/20 03:05:56;;;;;;;;;;;18.60;99.90;;;;;;8446733;28;19939;-72
2023/08/20 03:09:58;;;;;;;;;;;18.50;99.90;;;;;;8459727;28;20008;-72
2023/08/20 03:13:59;;;;;;;;;;;18.50;99.90;;;;;;8452182;28;19924;-72
2023/08/20 03:18:01;;;;;;;;;;;18.40;99.90;;;;;;8452477;28;19928;-73
2023/08/20 03:22:03;;;;;;;;;;;18.40;99.90;;;;;;8441099;28;20017;-72
2023/08/20 03:26:04;;;;;;;;;;;18.40;99.90;;;;;;8445289;28;20391;-72
2023/08/20 03:30:07;;;;;;;;;;;18.40;99.90;;;;;;8432567;28;19928;-72
2023/08/20 03:34:09;;;;;;;;;;;18.30;99.90;;;;;;8441555;27;20367;-72
2023/08/20 03:38:11;;;;;;;;;;;18.30;99.90;;;;;;8455534;27;20400;-72
2023/08/20 03:42:12;;;;;;;;;;;18.30;99.90;;;;;;8448238;28;20013;-72
2023/08/20 03:46:14;;;;;;;;;;;18.20;99.90;;;;;;8440035;28;19944;-72
2023/08/20 03:50:16;;;;;;;;;;;18.20;99.90;;;;;;8454034;27;19939;-72
2023/08/20 03:54:17;;;;;;;;;;;18.10;99.90;;;;;;8440856;27;20367;-72
2023/08/20 03:58:19;;;;;;;;;;;18.10;99.90;;;;;;8439052;27;19923;-72
2023/08/20 04:02:21;;;;;;;;;;;18.10;99.90;;;;;;8440957;28;19924;-72
2023/08/20 04:06:22;;;;;;;;;;;18.10;99.90;;;;;;8439197;27;19928;-72
2023/08/20 04:10:24;;;;;;;;;;;18.10;99.90;;;;;;8458156;27;19923;-73
2023/08/20 04:14:26;;;;;;;;;;;18.10;99.90;;;;;;8441425;27;19928;-72
2023/08/20 04:18:27;;;;;;;;;;;18.00;99.90;;;;;;8441220;28;19924;-72
2023/08/20 04:22:31;;;;;;;;;;;18.00;99.90;;;;;;8447593;27;19957;-73
2023/08/20 04:26:32;;;;;;;;;;;18.00;99.90;;;;;;8420269;28;19985;-73
2023/08/20 04:30:36;;;;;;;;;;;18.00;99.90;;;;;;8442903;27;20376;-72
2023/08/20 04:34:37;;;;;;;;;;;18.00;99.90;;;;;;8432850;27;19924;-72
2023/08/20 04:38:39;;;;;;;;;;;17.90;99.90;;;;;;8413676;28;19924;-72
2023/08/20 04:42:40;;;;;;;;;;;17.90;99.90;;;;;;8425348;27;20360;-73
2023/08/20 04:46:42;;;;;;;;;;;17.90;99.90;;;;;;8458003;27;19928;-72
2023/08/20 04:50:44;;;;;;;;;;;17.90;99.90;;;;;;8431466;27;19928;-72
2023/08/20 04:54:46;;;;;;;;;;;17.90;99.90;;;;;;8448211;28;19931;-72
2023/08/20 04:58:48;;;;;;;;;;;17.90;99.90;;;;;;8463238;27;19977;-72
2023/08/20 05:02:50;;;;;;;;;;;17.90;99.90;;;;;;8452573;28;19982;-72
2023/08/20 05:06:51;;;;;;;;;;;17.90;99.90;;;;;;8416254;28;19924;-72
2023/08/20 05:10:53;;;;;;;;;;;17.90;99.90;;;;;;8407237;28;19935;-72
2023/08/20 05:14:55;;;;;;;;;;;17.90;99.90;;;;;;8419430;28;19932;-72
2023/08/20 05:18:57;;;;;;;;;;;17.90;99.90;;;;;;8415584;28;19963;-73
2023/08/20 05:22:58;;;;;;;;;;;17.80;99.90;;;;;;8422572;27;19931;-72
2023/08/20 05:27:18;;;;;;;;;;;17.80;99.90;;;;;;8417397;28;19928;-73
2023/08/20 05:31:20;;;;;;;;;;;17.80;99.90;;;;;;8422291;28;20394;-73
2023/08/20 05:35:22;;;;;;;;;;;17.80;99.90;;;;;;8411494;28;19930;-72
2023/08/20 05:39:25;;;;;;;;;;;17.80;99.90;;;;;;8412271;28;19924;-72
2023/08/20 05:43:27;;;;;;;;;;;17.80;99.90;;;;;;8395180;28;20023;-72
2023/08/20 05:47:28;;;;;;;;;;;17.80;99.90;;;;;;8412744;28;19932;-72
2023/08/20 05:51:32;;;;;;;;;;;17.80;99.90;;;;;;8411608;28;19924;-72
2023/08/20 05:55:34;;;;;;;;;;;17.90;99.90;;;;;;8407596;28;19939;-72
2023/08/20 05:59:35;;;;;;;;;;;18.10;99.90;;;;;;8410349;28;20327;-72
2023/08/20 06:03:37;;;;;;;;;;;18.20;99.90;;;;;;8421255;28;19939;-72
2023/08/20 06:07:40;;;;;;;;;;;18.30;99.90;;;;;;8409562;28;19936;-72
2023/08/20 06:11:42;;;;;;;;;;;18.40;99.90;;;;;;8419408;28;19981;-73
2023/08/20 06:15:43;;;;;;;;;;;18.50;99.90;;;;;;8436328;28;19923;-72
2023/08/20 06:19:45;;;;;;;;;;;18.50;99.90;;;;;;8410942;28;19924;-72
2023/08/20 06:23:46;;;;;;;;;;;18.60;99.90;;;;;;8415824;28;19924;-72
2023/08/20 06:27:48;;;;;;;;;;;18.80;99.90;;;;;;8399921;28;19924;-72
2023/08/20 06:31:50;;;;;;;;;;;18.90;99.90;;;;;;8426304;28;19947;-73
2023/08/20 06:35:52;;;;;;;;;;;19.00;99.90;;;;;;8408408;28;19924;-72
2023/08/20 06:39:54;;;;;;;;;;;19.10;99.90;;;;;;8419915;28;19931;-72
2023/08/20 06:43:55;;;;;;;;;;;19.20;99.90;;;;;;8412125;28;19931;-73
2023/08/20 06:47:57;;;;;;;;;;;19.30;99.90;;;;;;8419353;28;19928;-72
2023/08/20 06:51:59;;;;;;;;;;;19.40;99.90;;;;;;8404235;28;20367;-73
2023/08/20 06:56:01;;;;;;;;;;;19.50;99.90;;;;;;8408702;28;20326;-73
2023/08/20 07:00:04;;;;;;;;;;;19.60;99.90;;;;;;8391761;28;20399;-72
2023/08/20 07:04:06;;;;;;;;;;;19.70;99.90;;;;;;8391395;28;19928;-72
2023/08/20 07:08:08;;;;;;;;;;;19.90;99.90;;;;;;8395137;28;19932;-72
2023/08/20 07:12:09;;;;;;;;;;;20.00;99.90;;;;;;8396909;28;20380;-72
2023/08/20 07:16:11;;;;;;;;;;;20.00;99.90;;;;;;8381525;28;19928;-72
2023/08/20 07:20:13;;;;;;;;;;;20.10;99.90;;;;;;8397180;28;20022;-72
2023/08/20 07:24:14;;;;;;;;;;;20.20;99.90;;;;;;8408844;27;21417;-73
2023/08/20 07:28:26;;;;;;;;;;;20.30;99.90;;;;;;8392720;28;19974;-73
2023/08/20 07:32:27;;;;;;;;;;;20.30;99.90;;;;;;8400527;28;19928;-72
2023/08/20 07:36:29;;;;;;;;;;;20.30;99.90;;;;;;8402145;28;20384;-72
2023/08/20 07:40:31;;;;;;;;;;;20.40;99.90;;;;;;8395783;28;20284;-72
2023/08/20 07:54:44;;;;;;;;;;;20.60;99.90;;;;;;8392512;28;19920;-72
2023/08/20 07:58:46;;;;;;;;;;;20.60;99.90;;;;;;8398916;28;19974;-72
2023/08/20 08:02:47;;;;;;;;;;;20.60;99.90;;;;;;8395612;28;20295;-73
2023/08/20 08:06:49;;;;;;;;;;;20.70;99.90;;;;;;8393552;28;19925;-72
2023/08/20 08:10:51;;;;;;;;;;;20.80;99.90;;;;;;8396588;28;20283;-72
2023/08/20 08:14:53;;;;;;;;;;;20.90;99.90;;;;;;8373998;28;19935;-72
2023/08/20 08:18:54;;;;;;;;;;;20.90;99.90;;;;;;8393056;28;19977;-73
2023/08/20 08:22:56;;;;;;;;;;;21.00;99.90;;;;;;8394135;28;19960;-72
2023/08/20 08:26:58;;;;;;;;;;;21.00;99.90;;;;;;8382090;28;20372;-72
2023/08/20 08:30:59;;;;;;;;;;;21.10;99.90;;;;;;8396660;28;19925;-72
2023/08/20 08:35:01;;;;;;;;;;;21.10;99.90;;;;;;8407839;28;19932;-72
2023/08/20 08:39:03;;;;;;;;;;;21.20;99.90;;;;;;8414224;28;19924;-72
2023/08/20 08:43:05;;;;;;;;;;;21.30;99.90;;;;;;8394996;28;20391;-72
2023/08/20 08:47:07;;;;;;;;;;;21.30;99.90;;;;;;8407747;27;19929;-72
2023/08/20 08:51:08;;;;;;;;;;;21.40;99.90;;;;;;8385346;28;20437;-73
2023/08/20 08:55:10;;;;;;;;;;;21.40;99.90;;;;;;8391029;28;20046;-73
2023/08/20 08:59:12;;;;;;;;;;;21.50;99.90;;;;;;8392590;28;19967;-72
2023/08/20 09:03:14;;;;;;;;;;;21.50;99.90;;;;;;8389593;28;19932;-73
2023/08/20 09:07:16;;;;;;;;;;;21.60;99.90;;;;;;8349905;28;19925;-73
2023/08/20 09:11:17;;;;;;;;;;;21.70;99.90;;;;;;8379279;28;19967;-72
2023/08/20 09:15:19;;;;;;;;;;;21.80;99.90;;;;;;8337576;28;20364;-73
2023/08/20 09:19:21;;;;;;;;;;;21.80;99.90;;;;;;8351342;28;19978;-73
2023/08/20 09:23:22;;;;;;;;;;;21.90;99.90;;;;;;8345547;28;19928;-72
2023/08/20 09:27:24;;;;;;;;;;;22.00;99.90;;;;;;8348233;28;20342;-72
2023/08/20 09:31:39;;;;;;;;;;;22.10;99.90;;;;;;8350943;28;19925;-73
2023/08/20 09:35:50;;;;;;;;;;;22.20;99.90;;;;;;8346738;28;19932;-72
2023/08/20 09:39:51;;;;;;;;;;;22.30;99.90;;;;;;8353648;28;19933;-72
2023/08/20 09:43:55;;;;;;;;;;;22.30;99.90;;;;;;8349490;28;19932;-72
2023/08/20 09:47:57;;;;;;;;;;;22.40;99.90;;;;;;8332857;28;19944;-72
2023/08/20 09:52:00;;;;;;;;;;;22.40;99.90;;;;;;8348128;28;19925;-72
2023/08/20 09:56:10;;;;;;;;;;;22.50;99.90;;;;;;8355414;28;20434;-72
2023/08/20 10:00:12;;;;;;;;;;;22.60;99.90;;;;;;8352388;28;19929;-74
2023/08/20 10:04:15;;;;;;;;;;;22.60;99.90;;;;;;8358123;28;19979;-72
2023/08/20 10:08:17;;;;;;;;;;;22.70;99.90;;;;;;8398800;28;19931;-72
2023/08/20 10:12:19;;;;;;;;;;;22.70;99.90;;;;;;8387126;28;19973;-72
2023/08/20 10:16:23;;;;;;;;;;;22.80;99.90;;;;;;8387070;28;19924;-72
2023/08/20 10:20:28;;;;;;;;;;;22.80;99.90;;;;;;8385461;28;19931;-72
2023/08/20 10:24:49;;;;;;;;;;;22.90;99.90;;;;;;8385077;28;20681;-72
2023/08/20 10:29:11;;;;;;;;;;;23.10;99.90;;;;;;8385439;28;19928;-72
2023/08/20 10:33:14;;;;;;;;;;;23.20;99.90;;;;;;8390198;28;19928;-72
2023/08/20 10:37:25;;;;;;;;;;;23.30;99.90;;;;;;8389395;28;19935;-72
2023/08/20 10:41:28;;;;;;;;;;;23.30;99.90;;;;;;8379769;28;20572;-72
2023/08/20 10:45:29;;;;;;;;;;;23.40;99.90;;;;;;8368383;28;20380;-72
2023/08/20 10:49:31;;;;;;;;;;;23.40;99.90;;;;;;8391793;28;19928;-72
2023/08/20 10:53:33;;;;;;;;;;;23.40;99.90;;;;;;8374465;28;19924;-72
2023/08/20 10:57:35;;;;;;;;;;;23.50;99.90;;;;;;8372059;28;19924;-72
2023/08/20 11:01:38;;;;;;;;;;;23.50;99.90;;;;;;8385931;28;20426;-72
2023/08/20 11:05:40;;;;;;;;;;;23.60;99.90;;;;;;8389169;28;19987;-73
2023/08/20 11:14:44;;;;;;;;;;;23.70;99.90;;;;;;8382595;28;20025;-71
2023/08/20 11:18:46;;;;;;;;;;;23.80;99.90;;;;;;8386298;28;19925;-72
2023/08/20 11:22:48;;;;;;;;;;;23.90;99.90;;;;;;8385352;28;20384;-72
2023/08/20 11:26:50;;;;;;;;;;;23.90;99.90;;;;;;8401170;28;20375;-72
2023/08/20 11:30:53;;;;;;;;;;;24.00;99.90;;;;;;8397589;28;19934;-72
2023/08/20 11:34:54;;;;;;;;;;;24.10;99.90;;;;;;8391644;28;20358;-72
2023/08/20 11:38:56;;;;;;;;;;;24.10;99.90;;;;;;8392100;28;19928;-72
2023/08/20 11:42:58;;;;;;;;;;;24.20;99.90;;;;;;8378041;28;19925;-72
2023/08/20 11:46:59;;;;;;;;;;;24.20;99.90;;;;;;8391076;28;19951;-72
2023/08/20 11:51:01;;;;;;;;;;;24.30;99.90;;;;;;8390937;28;19925;-72
2023/08/20 11:55:03;;;;;;;;;;;24.20;99.90;;;;;;8395625;28;20263;-72
2023/08/20 11:59:10;;;;;;;;;;;24.30;99.90;;;;;;8394442;28;19925;-72
2023/08/20 12:03:12;;;;;;;;;;;24.30;99.90;;;;;;8390250;28;19924;-72
2023/08/20 12:07:14;;;;;;;;;;;24.30;99.90;;;;;;8389085;28;20010;-72
2023/08/20 12:11:17;;;;;;;;;;;24.30;99.90;;;;;;8381094;28;20857;-72
2023/08/20 12:15:19;;;;;;;;;;;24.40;99.90;;;;;;8400881;28;19928;-73
2023/08/20 12:19:20;;;;;;;;;;;24.50;99.90;;;;;;8395842;28;20384;-72
2023/08/20 12:23:22;;;;;;;;;;;24.60;99.90;;;;;;8393153;28;20870;-72
2023/08/20 12:27:24;;;;;;;;;;;24.60;99.90;;;;;;8395256;28;19947;-72
2023/08/20 12:31:25;;;;;;;;;;;24.60;99.90;;;;;;8411608;27;20687;-72
2023/08/20 12:35:27;;;;;;;;;;;24.70;99.90;;;;;;8391448;28;19931;-71
2023/08/20 12:39:29;;;;;;;;;;;24.80;99.90;;;;;;8396327;28;19935;-71
2023/08/20 12:43:31;;;;;;;;;;;24.80;99.90;;;;;;8399565;28;19984;-72
2023/08/20 12:47:32;;;;;;;;;;;24.80;99.90;;;;;;8396901;28;19931;-71
2023/08/20 12:51:35;;;;;;;;;;;24.80;99.90;;;;;;8397404;28;20363;-71
2023/08/20 12:55:36;;;;;;;;;;;24.90;99.90;;;;;;8393151;28;19924;-71
2023/08/20 12:59:38;;;;;;;;;;;25.00;99.90;;;;;;8383721;28;19932;-72
2023/08/20 13:03:40;;;;;;;;;;;25.10;99.90;;;;;;8390919;28;19978;-71
2023/08/20 13:07:41;;;;;;;;;;;25.10;99.90;;;;;;8387873;28;19977;-72
2023/08/20 13:11:44;;;;;;;;;;;25.00;99.90;;;;;;8390389;28;19931;-72
2023/08/20 13:15:46;;;;;;;;;;;25.00;99.90;;;;;;8368354;28;19932;-71
2023/08/20 13:19:47;;;;;;;;;;;24.90;99.90;;;;;;8371338;28;19970;-72
2023/08/20 13:23:49;;;;;;;;;;;24.90;99.90;;;;;;8389844;28;20051;-72
2023/08/20 13:27:51;;;;;;;;;;;24.80;99.90;;;;;;8389044;28;19933;-72
2023/08/20 13:31:52;;;;;;;;;;;24.80;99.90;;;;;;8388464;28;19974;-72
2023/08/20 13:35:55;;;;;;;;;;;24.90;99.90;;;;;;8383849;28;19935;-72
2023/08/20 13:39:58;;;;;;;;;;;24.90;99.90;;;;;;8392369;28;19946;-72
2023/08/20 13:43:59;;;;;;;;;;;24.80;99.90;;;;;;8384289;28;20334;-72
2023/08/20 13:48:01;;;;;;;;;;;24.80;99.90;;;;;;8382081;28;19928;-72
2023/08/20 13:52:03;;;;;;;;;;;25.00;99.90;;;;;;8383951;28;19931;-72
2023/08/20 13:56:04;;;;;;;;;;;25.00;99.90;;;;;;8385094;28;19924;-72
2023/08/20 14:00:12;;;;;;;;;;;25.10;99.90;;;;;;8378798;28;19928;-71
2023/08/20 14:04:13;;;;;;;;;;;25.10;99.90;;;;;;8393307;28;19924;-72
2023/08/20 14:08:17;;;;;;;;;;;25.10;99.90;;;;;;8381872;28;19928;-71
2023/08/20 14:12:19;;;;;;;;;;;25.20;99.90;;;;;;8383757;28;19940;-72
2023/08/20 14:16:21;;;;;;;;;;;25.20;99.90;;;;;;8386525;28;19924;-71
2023/08/20 14:20:23;;;;;;;;;;;25.30;99.90;;;;;;8379945;28;19932;-72
2023/08/20 14:24:25;;;;;;;;;;;25.30;99.90;;;;;;8386201;28;19924;-72
2023/08/20 14:28:26;;;;;;;;;;;25.40;99.90;;;;;;8387309;28;19958;-72
2023/08/20 14:32:28;;;;;;;;;;;25.50;99.90;;;;;;8398603;28;19924;-72
2023/08/20 14:36:30;;;;;;;;;;;25.50;99.90;;;;;;8390716;28;20277;-72
2023/08/20 14:40:32;;;;;;;;;;;25.40;99.90;;;;;;8388390;28;19932;-71
2023/08/20 14:44:33;;;;;;;;;;;25.20;99.90;;;;;;8389160;28;19928;-72
2023/08/20 14:48:40;;;;;;;;;;;25.10;99.90;;;;;;8387793;28;19928;-72
2023/08/20 14:52:42;;;;;;;;;;;25.00;99.90;;;;;;8408722;28;19925;-71
2023/08/20 14:56:44;;;;;;;;;;;25.00;99.90;;;;;;8387803;28;19931;-72
2023/08/20 15:00:48;;;;;;;;;;;25.00;99.90;;;;;;8381870;28;20376;-71
2023/08/20 15:04:49;;;;;;;;;;;25.20;99.90;;;;;;8382552;28;20398;-72
2023/08/20 15:08:51;;;;;;;;;;;25.40;99.90;;;;;;8386855;28;20287;-71
2023/08/20 15:12:53;;;;;;;;;;;25.50;99.90;;;;;;8399511;28;19936;-71
2023/08/20 15:16:54;;;;;;;;;;;25.70;99.90;;;;;;8385310;28;19943;-71
2023/08/20 15:20:56;;;;;;;;;;;25.90;99.90;;;;;;8405258;28;20244;-72
2023/08/20 15:24:58;;;;;;;;;;;26.20;99.90;;;;;;8393526;28;21210;-72
2023/08/20 15:29:00;;;;;;;;;;;26.40;99.90;;;;;;8412056;27;19932;-72
2023/08/20 15:33:03;;;;;;;;;;;26.60;99.90;;;;;;8391360;28;19932;-72
2023/08/20 15:37:05;;;;;;;;;;;26.80;99.90;;;;;;8392363;28;19967;-72
2023/08/20 15:41:07;;;;;;;;;;;26.90;99.90;;;;;;8391696;28;19925;-72
2023/08/20 15:45:08;;;;;;;;;;;27.00;99.90;;;;;;8389608;28;20372;-72
2023/08/20 15:49:10;;;;;;;;;;;26.90;99.90;;;;;;8387328;28;19933;-72
2023/08/20 15:53:12;;;;;;;;;;;26.70;99.90;;;;;;8393222;28;19924;-72
2023/08/20 15:57:14;;;;;;;;;;;26.50;99.90;;;;;;8416439;28;19935;-72
2023/08/20 16:01:15;;;;;;;;;;;26.30;99.90;;;;;;8392572;28;19960;-72
2023/08/20 16:05:17;;;;;;;;;;;26.10;99.90;;;;;;8395307;28;19942;-72
2023/08/20 16:09:19;;;;;;;;;;;25.90;99.90;;;;;;8394352;28;19939;-72
2023/08/20 16:13:30;;;;;;;;;;;25.80;99.90;;;;;;8408474;27;19940;-72
2023/08/20 16:17:32;;;;;;;;;;;25.70;99.90;;;;;;8376320;28;19924;-72
2023/08/20 16:21:34;;;;;;;;;;;25.60;99.90;;;;;;8412579;27;20401;-72
2023/08/20 16:25:37;;;;;;;;;;;25.50;99.90;;;;;;8394314;28;20682;-72
2023/08/20 16:29:38;;;;;;;;;;;25.40;99.90;;;;;;8390550;28;19973;-72
2023/08/20 16:33:40;;;;;;;;;;;25.40;99.90;;;;;;8388133;28;20416;-72
2023/08/20 16:37:42;;;;;;;;;;;25.60;99.90;;;;;;8396933;28;19932;-72
2023/08/20 16:41:43;;;;;;;;;;;25.70;99.90;;;;;;8379550;28;19928;-72
2023/08/20 16:45:45;;;;;;;;;;;25.70;99.90;;;;;;8388674;28;20417;-72
2023/08/20 16:49:47;;;;;;;;;;;25.70;99.90;;;;;;8396049;28;19928;-72
2023/08/20 16:53:48;;;;;;;;;;;25.60;99.90;;;;;;8388271;28;19928;-71
2023/08/20 16:57:50;;;;;;;;;;;25.70;99.90;;;;;;8393597;28;19929;-72
2023/08/20 17:01:51;;;;;;;;;;;26.00;99.90;;;;;;8391215;28;20342;-71
2023/08/20 17:06:00;;;;;;;;;;;26.20;99.90;;;;;;8404998;27;19935;-72
2023/08/20 17:10:03;;;;;;;;;;;26.40;99.90;;;;;;8394591;28;19975;-72
2023/08/20 17:14:04;;;;;;;;;;;26.60;99.90;;;;;;8387975;28;19928;-72
2023/08/20 17:18:06;;;;;;;;;;;26.70;99.90;;;;;;8393681;28;20376;-72
2023/08/20 17:22:08;;;;;;;;;;;26.70;99.90;;;;;;8395052;28;19935;-72
2023/08/20 17:26:09;;;;;;;;;;;26.60;99.90;;;;;;8390301;28;20046;-72
2023/08/20 17:30:11;;;;;;;;;;;26.50;99.90;;;;;;8395228;28;20269;-72
2023/08/20 17:34:13;;;;;;;;;;;26.30;99.90;;;;;;8387744;28;19929;-72
2023/08/20 17:38:15;;;;;;;;;;;26.00;99.90;;;;;;8395727;28;19924;-72
2023/08/20 17:42:16;;;;;;;;;;;25.80;99.90;;;;;;8394406;28;19932;-72
2023/08/20 17:46:18;;;;;;;;;;;25.60;99.90;;;;;;8392629;28;20271;-72
2023/08/20 17:50:20;;;;;;;;;;;25.40;99.90;;;;;;8392266;28;19928;-72
2023/08/20 17:54:21;;;;;;;;;;;25.30;99.90;;;;;;8389120;28;20022;-72
2023/08/20 17:58:23;;;;;;;;;;;25.20;99.90;;;;;;8376204;28;19929;-72
2023/08/20 18:02:25;;;;;;;;;;;25.20;99.90;;;;;;8390417;28;20382;-72
2023/08/20 18:06:27;;;;;;;;;;;25.20;99.90;;;;;;8390749;28;19925;-72
2023/08/20 18:10:28;;;;;;;;;;;25.10;99.90;;;;;;8390052;28;19932;-72
2023/08/20 18:14:30;;;;;;;;;;;25.00;99.90;;;;;;8389444;28;19931;-72
2023/08/20 18:18:32;;;;;;;;;;;25.00;99.90;;;;;;8388196;28;19935;-72
2023/08/20 18:22:34;;;;;;;;;;;24.90;99.90;;;;;;8371404;28;19948;-72
2023/08/20 18:26:36;;;;;;;;;;;24.90;99.90;;;;;;8373059;28;19932;-72
2023/08/20 18:30:38;;;;;;;;;;;24.80;99.90;;;;;;8392331;28;19928;-72
2023/08/20 18:34:39;;;;;;;;;;;24.70;99.90;;;;;;8393107;28;19924;-72
2023/08/20 18:38:41;;;;;;;;;;;24.60;99.90;;;;;;8395463;28;19954;-72
2023/08/20 18:42:43;;;;;;;;;;;24.50;99.90;;;;;;8393081;28;19932;-72
2023/08/20 18:46:45;;;;;;;;;;;24.40;99.90;;;;;;8376166;28;19935;-72
2023/08/20 18:50:48;;;;;;;;;;;24.30;99.90;;;;;;8404658;28;19932;-72
2023/08/20 18:54:49;;;;;;;;;;;24.20;99.90;;;;;;8395294;28;19924;-72
2023/08/20 18:58:51;;;;;;;;;;;24.10;99.90;;;;;;8411670;28;19984;-72
2023/08/20 19:02:53;;;;;;;;;;;24.00;99.90;;;;;;8403454;28;19931;-72
2023/08/20 19:06:54;;;;;;;;;;;23.90;99.90;;;;;;8396772;28;19924;-72
2023/08/20 19:11:00;;;;;;;;;;;23.80;99.90;;;;;;8392699;28;20295;-73
2023/08/20 19:15:02;;;;;;;;;;;23.80;99.90;;;;;;8401150;28;20379;-72
2023/08/20 19:19:03;;;;;;;;;;;23.70;99.90;;;;;;8400389;28;20376;-72
2023/08/20 19:23:05;;;;;;;;;;;23.60;99.90;;;;;;8397210;28;20376;-72
2023/08/20 19:27:07;;;;;;;;;;;23.50;99.90;;;;;;8395870;28;19935;-72
2023/08/20 19:31:08;;;;;;;;;;;23.40;99.90;;;;;;8394430;28;20372;-72
2023/08/20 19:35:11;;;;;;;;;;;23.30;99.90;;;;;;8398345;28;19924;-73
2023/08/20 19:39:18;;;;;;;;;;;23.20;99.90;;;;;;8401370;28;19924;-73
2023/08/20 19:43:19;;;;;;;;;;;23.00;99.90;;;;;;8395242;28;19929;-72
2023/08/20 19:47:21;;;;;;;;;;;22.90;99.90;;;;;;8402310;28;19936;-73
2023/08/20 19:51:23;;;;;;;;;;;22.80;99.90;;;;;;8398277;28;19924;-72
2023/08/20 19:55:25;;;;;;;;;;;22.70;99.90;;;;;;8396238;28;19958;-72
2023/08/20 19:59:26;;;;;;;;;;;22.50;99.90;;;;;;8400917;28;19925;-73
2023/08/20 20:03:28;;;;;;;;;;;22.40;99.90;;;;;;8393546;28;19970;-72
2023/08/20 20:07:30;;;;;;;;;;;22.30;99.90;;;;;;8400179;28;19927;-72
2023/08/20 20:11:31;;;;;;;;;;;22.30;99.90;;;;;;8394617;28;19932;-72
2023/08/20 20:15:33;;;;;;;;;;;22.20;99.90;;;;;;8394641;28;19932;-72
2023/08/20 20:19:35;;;;;;;;;;;22.20;99.90;;;;;;8401409;28;19935;-72
2023/08/20 20:23:36;;;;;;;;;;;22.10;99.90;;;;;;8401326;28;19935;-72
2023/08/20 20:27:38;;;;;;;;;;;22.10;99.90;;;;;;8395703;28;19955;-73
2023/08/20 20:31:40;;;;;;;;;;;22.00;99.90;;;;;;8391829;28;19935;-73
2023/08/20 20:35:41;;;;;;;;;;;21.90;99.90;;;;;;8395413;28;20400;-72
2023/08/20 20:39:43;;;;;;;;;;;21.80;99.90;;;;;;8394189;28;19928;-72
2023/08/20 20:43:45;;;;;;;;;;;21.80;99.90;;;;;;8392997;28;19932;-72
2023/08/20 20:47:46;;;;;;;;;;;21.80;99.90;;;;;;8393073;28;19935;-73
2023/08/20 20:51:48;;;;;;;;;;;21.70;99.90;;;;;;8389343;28;19932;-73
2023/08/20 20:55:50;;;;;;;;;;;21.70;99.90;;;;;;8371257;28;19924;-72
2023/08/20 20:59:51;;;;;;;;;;;21.70;99.90;;;;;;8364523;28;20009;-72
2023/08/20 21:03:53;;;;;;;;;;;21.70;99.90;;;;;;8405000;28;20398;-72
2023/08/20 21:07:55;;;;;;;;;;;21.70;99.90;;;;;;8410320;28;20406;-72
2023/08/20 21:11:57;;;;;;;;;;;21.60;99.90;;;;;;8409170;28;20647;-73
2023/08/20 21:15:58;;;;;;;;;;;21.50;99.90;;;;;;8415902;28;19932;-72
2023/08/20 21:20:00;;;;;;;;;;;21.50;99.90;;;;;;8424005;28;19924;-72
2023/08/20 21:24:02;;;;;;;;;;;21.50;99.90;;;;;;8399084;28;20276;-72
2023/08/20 21:28:03;;;;;;;;;;;21.40;99.90;;;;;;8417275;28;19924;-73
2023/08/20 21:32:06;;;;;;;;;;;21.30;99.90;;;;;;8424026;28;19924;-73
2023/08/20 21:36:07;;;;;;;;;;;21.20;99.90;;;;;;8414521;28;20249;-72
2023/08/20 21:40:09;;;;;;;;;;;21.20;99.90;;;;;;8434485;28;19923;-73
2023/08/20 21:44:11;;;;;;;;;;;21.10;99.90;;;;;;8420910;28;19996;-72
2023/08/20 21:48:13;;;;;;;;;;;21.10;99.90;;;;;;8422418;28;19994;-72
2023/08/20 21:52:15;;;;;;;;;;;21.10;99.90;;;;;;8412052;28;19923;-73
2023/08/20 21:56:17;;;;;;;;;;;21.10;99.90;;;;;;8416378;28;19929;-72
2023/08/20 22:00:18;;;;;;;;;;;21.10;99.90;;;;;;8433862;28;19928;-72
2023/08/20 22:04:21;;;;;;;;;;;21.10;99.90;;;;;;8417960;28;19924;-72
2023/08/20 22:08:22;;;;;;;;;;;21.00;99.90;;;;;;8423763;28;19932;-72
2023/08/20 22:12:24;;;;;;;;;;;21.00;99.90;;;;;;8413528;28;19931;-72
2023/08/20 22:16:26;;;;;;;;;;;21.00;99.90;;;;;;8416353;28;19935;-73
2023/08/20 22:20:27;;;;;;;;;;;20.90;99.90;;;;;;8406470;28;19977;-72
2023/08/20 22:24:29;;;;;;;;;;;20.80;99.90;;;;;;8408120;28;19972;-72
2023/08/20 22:28:31;;;;;;;;;;;20.80;99.90;;;;;;8419236;28;19936;-73
2023/08/20 22:32:33;;;;;;;;;;;20.80;99.90;;;;;;8421133;28;19936;-72
2023/08/20 22:36:34;;;;;;;;;;;20.70;99.90;;;;;;8425396;28;19928;-72
2023/08/20 22:40:37;;;;;;;;;;;20.70;99.90;;;;;;8400693;28;19925;-73
2023/08/20 22:44:39;;;;;;;;;;;20.70;99.90;;;;;;8410653;28;19970;-72
2023/08/20 22:48:40;;;;;;;;;;;20.60;99.90;;;;;;8431728;28;19928;-73
2023/08/20 22:52:42;;;;;;;;;;;20.60;99.90;;;;;;8435416;28;19981;-72
2023/08/20 22:56:44;;;;;;;;;;;20.60;99.90;;;;;;8421171;28;19931;-72
2023/08/20 23:00:46;;;;;;;;;;;20.60;99.90;;;;;;8454774;27;19923;-72
2023/08/20 23:04:48;;;;;;;;;;;20.50;99.90;;;;;;8430243;28;20002;-73
2023/08/20 23:08:50;;;;;;;;;;;20.40;99.90;;;;;;8438857;28;20398;-72
2023/08/20 23:12:51;;;;;;;;;;;20.40;99.90;;;;;;8431945;28;20682;-73
2023/08/20 23:16:53;;;;;;;;;;;20.40;99.90;;;;;;8441599;28;19927;-72
2023/08/20 23:20:59;;;;;;;;;;;20.40;99.90;;;;;;8412183;28;19924;-72
2023/08/20 23:25:01;;;;;;;;;;;20.30;99.90;;;;;;8417733;28;20999;-72
2023/08/20 23:29:03;;;;;;;;;;;20.30;99.90;;;;;;8423233;28;19932;-73
2023/08/20 23:33:05;;;;;;;;;;;20.20;99.90;;;;;;8408125;28;19951;-72
2023/08/20 23:37:07;;;;;;;;;;;20.10;99.90;;;;;;8428910;28;20288;-73
2023/08/20 23:41:08;;;;;;;;;;;20.10;99.90;;;;;;8424525;28;19951;-73